createdAt,value
2023-01-08T00:00:42.901Z,56.04
2023-01-08T00:02:51.329Z,56.27
2023-01-08T00:04:53.125Z,56.42
2023-01-08T00:06:54.816Z,56.22
2023-01-08T00:08:56.564Z,56.00
2023-01-08T00:10:59.155Z,56.32
2023-01-08T00:13:00.872Z,56.30
2023-01-08T00:15:06.669Z,56.40
2023-01-08T00:17:08.608Z,56.48
2023-01-08T00:19:14.633Z,56.41
2023-01-08T00:21:16.369Z,56.30
2023-01-08T00:23:21.504Z,56.31
2023-01-08T00:25:27.707Z,56.01
2023-01-08T00:27:29.292Z,56.12
2023-01-08T00:29:31.234Z,56.46
2023-01-08T00:31:34.783Z,56.44
2023-01-08T00:33:36.988Z,56.36
2023-01-08T00:35:39.364Z,56.11
2023-01-08T00:37:40.848Z,56.01
2023-01-08T00:39:42.420Z,56.14
2023-01-08T00:41:50.263Z,56.39
2023-01-08T00:43:51.843Z,55.98
2023-01-08T00:45:54.035Z,56.16
2023-01-08T00:47:58.581Z,56.21
2023-01-08T00:50:00.583Z,56.37
2023-01-08T00:52:02.268Z,56.29
2023-01-08T00:54:03.953Z,56.16
2023-01-08T00:56:10.891Z,56.14
2023-01-08T00:58:13.063Z,56.11
2023-01-08T01:00:16.385Z,56.52
2023-01-08T01:02:18.021Z,56.29
2023-01-08T01:04:20.271Z,56.34
2023-01-08T01:06:21.938Z,56.35
2023-01-08T01:08:23.378Z,56.42
2023-01-08T01:10:25.136Z,55.97
2023-01-08T01:12:26.842Z,56.18
2023-01-08T01:14:28.485Z,56.37
2023-01-08T01:16:29.993Z,56.54
2023-01-08T01:18:32.135Z,56.32
2023-01-08T01:20:33.860Z,56.17
2023-01-08T01:22:36.459Z,56.34
2023-01-08T01:24:38.244Z,56.45
2023-01-08T01:26:40.857Z,56.15
2023-01-08T01:28:42.418Z,56.33
2023-01-08T01:30:43.930Z,56.41
2023-01-08T01:32:45.526Z,56.15
2023-01-08T01:34:47.210Z,56.34
2023-01-08T01:36:48.791Z,56.43
2023-01-08T01:38:51.961Z,56.45
2023-01-08T01:40:53.501Z,56.44
2023-01-08T01:42:55.096Z,56.51
2023-01-08T01:44:56.826Z,56.46
2023-01-08T01:47:01.438Z,56.47
2023-01-08T01:49:12.201Z,56.71
2023-01-08T01:51:16.305Z,56.69
2023-01-08T01:53:31.824Z,56.49
2023-01-08T01:55:38.053Z,56.61
2023-01-08T01:57:42.143Z,56.73
2023-01-08T01:59:45.991Z,56.86
2023-01-08T02:01:47.913Z,56.97
2023-01-08T02:03:52.608Z,56.45
2023-01-08T02:06:26.797Z,56.97
2023-01-08T02:08:37.385Z,56.83
2023-01-08T02:11:06.679Z,57.09
2023-01-08T02:13:14.511Z,57.03
2023-01-08T02:15:41.374Z,57.29
2023-01-08T02:18:07.845Z,57.14
2023-01-08T02:20:21.885Z,57.08
2023-01-08T02:22:44.524Z,57.26
2023-01-08T02:25:01.550Z,57.54
2023-01-08T02:27:06.767Z,57.07
2023-01-08T02:29:18.873Z,56.86
2023-01-08T02:31:31.825Z,57.20
2023-01-08T02:33:33.793Z,57.21
2023-01-08T02:36:16.174Z,56.99
2023-01-08T02:38:18.450Z,57.15
2023-01-08T02:40:29.587Z,57.10
2023-01-08T02:42:42.843Z,57.17
2023-01-08T02:45:06.854Z,57.23
2023-01-08T02:47:13.761Z,57.47
2023-01-08T02:49:16.870Z,57.53
2023-01-08T02:51:48.849Z,57.27
2023-01-08T02:53:55.022Z,57.04
2023-01-08T02:56:03.112Z,57.42
2023-01-08T02:58:05.846Z,57.59
2023-01-08T03:00:08.593Z,57.08
2023-01-08T03:02:11.357Z,57.09
2023-01-08T03:04:20.062Z,57.09
2023-01-08T03:06:21.831Z,57.05
2023-01-08T03:08:24.402Z,57.42
2023-01-08T03:10:30.188Z,57.20
2023-01-08T03:12:40.541Z,57.26
2023-01-08T03:15:09.921Z,57.32
2023-01-08T03:17:24.092Z,57.26
2023-01-08T03:19:31.490Z,57.08
2023-01-08T03:21:35.621Z,57.04
2023-01-08T03:23:40.021Z,57.04
2023-01-08T03:25:46.038Z,56.99
2023-01-08T03:27:52.336Z,57.00
2023-01-08T03:29:58.619Z,57.19
2023-01-08T03:32:05.019Z,57.36
2023-01-08T03:34:07.702Z,57.12
2023-01-08T03:36:14.110Z,57.12
2023-01-08T03:38:25.713Z,57.39
2023-01-08T03:40:34.983Z,57.08
2023-01-08T03:42:36.728Z,57.23
2023-01-08T03:44:38.616Z,57.37
2023-01-08T03:46:44.809Z,57.17
2023-01-08T03:48:46.994Z,57.46
2023-01-08T03:50:49.287Z,57.09
2023-01-08T03:52:53.131Z,57.26
2023-01-08T03:54:55.690Z,57.39
2023-01-08T03:56:57.451Z,57.24
2023-01-08T03:58:58.917Z,57.34
2023-01-08T04:01:00.994Z,57.07
2023-01-08T04:03:05.682Z,57.24
2023-01-08T04:05:13.807Z,57.05
2023-01-08T04:07:15.281Z,56.79
2023-01-08T04:09:16.903Z,57.33
2023-01-08T04:11:28.192Z,57.06
2023-01-08T04:13:32.719Z,57.15
2023-01-08T04:15:34.769Z,56.81
2023-01-08T04:17:36.351Z,56.75
2023-01-08T04:19:37.958Z,57.79
2023-01-08T04:21:39.847Z,57.04
2023-01-08T04:23:41.321Z,57.25
2023-01-08T04:25:43.090Z,56.87
2023-01-08T04:27:44.703Z,57.29
2023-01-08T04:29:46.205Z,57.14
2023-01-08T04:31:50.170Z,57.00
2023-01-08T04:33:51.782Z,57.13
2023-01-08T04:35:53.410Z,57.37
2023-01-08T04:37:54.989Z,57.32
2023-01-08T04:39:56.603Z,57.31
2023-01-08T04:41:58.211Z,57.12
2023-01-08T04:43:59.804Z,56.97
2023-01-08T04:46:07.767Z,57.17
2023-01-08T04:48:11.214Z,57.03
2023-01-08T04:50:12.858Z,56.82
2023-01-08T04:52:14.312Z,57.31
2023-01-08T04:54:15.860Z,57.31
2023-01-08T04:56:29.085Z,57.37
2023-01-08T04:58:31.061Z,56.84
2023-01-08T05:00:32.831Z,57.17
2023-01-08T05:02:34.660Z,57.18
2023-01-08T05:04:36.330Z,56.83
2023-01-08T05:06:38.082Z,57.03
2023-01-08T05:08:42.358Z,56.88
2023-01-08T05:10:43.946Z,57.19
2023-01-08T05:12:45.568Z,57.13
2023-01-08T05:14:47.256Z,57.03
2023-01-08T05:16:48.849Z,56.88
2023-01-08T05:18:50.449Z,57.18
2023-01-08T05:20:52.035Z,57.38
2023-01-08T05:22:53.657Z,57.01
2023-01-08T05:24:55.113Z,56.86
2023-01-08T05:26:56.897Z,57.16
2023-01-08T05:29:01.227Z,56.87
2023-01-08T05:31:03.131Z,56.93
2023-01-08T05:33:04.692Z,56.90
2023-01-08T05:35:06.519Z,57.26
2023-01-08T05:37:08.170Z,57.15
2023-01-08T05:42:53.594Z,57.29
2023-01-08T05:44:55.518Z,56.88
2023-01-08T05:46:59.914Z,57.07
2023-01-08T05:49:25.899Z,57.43
2023-01-08T05:51:45.246Z,57.47
2023-01-08T05:53:49.701Z,57.40
2023-01-08T05:55:51.269Z,57.24
2023-01-08T05:57:52.766Z,57.09
2023-01-08T05:59:54.221Z,57.22
2023-01-08T06:01:55.913Z,57.33
2023-01-08T06:03:59.019Z,57.11
2023-01-08T06:06:06.030Z,57.07
2023-01-08T06:08:10.482Z,57.28
2023-01-08T06:10:11.934Z,57.05
2023-01-08T06:12:13.610Z,57.09
2023-01-08T06:14:16.611Z,56.88
2023-01-08T06:16:21.238Z,57.01
2023-01-08T06:18:22.764Z,56.96
2023-01-08T06:20:24.316Z,57.25
2023-01-08T06:22:26.608Z,56.93
2023-01-08T06:24:28.273Z,57.08
2023-01-08T06:26:30.029Z,57.29
2023-01-08T06:28:32.737Z,56.89
2023-01-08T06:30:34.691Z,56.99
2023-01-08T06:32:36.464Z,56.83
2023-01-08T06:34:37.981Z,57.40
2023-01-08T06:36:39.725Z,57.09
2023-01-08T06:38:41.278Z,57.64
2023-01-08T06:40:42.958Z,57.24
2023-01-08T06:42:47.607Z,57.48
2023-01-08T06:44:49.199Z,57.09
2023-01-08T06:46:51.346Z,57.27
2023-01-08T06:48:53.221Z,56.99
2023-01-08T06:50:56.320Z,57.43
2023-01-08T06:52:57.997Z,57.18
2023-01-08T06:54:59.700Z,56.96
2023-01-08T06:57:04.138Z,57.50
2023-01-08T06:59:05.857Z,57.13
2023-01-08T07:01:07.521Z,57.31
2023-01-08T07:03:11.686Z,57.26
2023-01-08T07:05:13.469Z,57.09
2023-01-08T07:07:17.748Z,56.81
2023-01-08T07:09:22.036Z,57.21
2023-01-08T07:11:25.699Z,56.86
2023-01-08T07:13:30.045Z,56.85
2023-01-08T07:15:36.203Z,56.87
2023-01-08T07:17:37.834Z,57.03
2023-01-08T07:19:41.933Z,57.25
2023-01-08T07:21:43.643Z,57.08
2023-01-08T07:23:49.269Z,57.22
2023-01-08T07:25:53.457Z,57.07
2023-01-08T07:27:55.108Z,57.08
2023-01-08T07:29:56.779Z,57.06
2023-01-08T07:32:05.676Z,56.83
2023-01-08T07:34:07.530Z,56.87
2023-01-08T07:36:09.460Z,56.89
2023-01-08T07:38:11.073Z,57.03
2023-01-08T07:40:16.146Z,57.06
2023-01-08T07:42:17.926Z,56.78
2023-01-08T07:44:21.261Z,56.85
2023-01-08T07:46:23.061Z,57.03
2023-01-08T07:48:27.294Z,56.88
2023-01-08T07:50:29.083Z,56.85
2023-01-08T07:52:30.694Z,57.46
2023-01-08T07:54:32.369Z,56.98
2023-01-08T07:56:34.094Z,57.48
2023-01-08T07:58:35.915Z,57.27
2023-01-08T08:00:37.766Z,57.04
2023-01-08T08:02:39.488Z,57.20
2023-01-08T08:04:44.432Z,56.94
2023-01-08T08:06:47.667Z,57.00
2023-01-08T08:08:51.546Z,57.24
2023-01-08T08:10:53.131Z,57.23
2023-01-08T08:12:54.811Z,57.09
2023-01-08T08:14:56.345Z,56.92
2023-01-08T08:16:57.935Z,56.95
2023-01-08T08:19:02.557Z,57.07
2023-01-08T08:21:04.396Z,57.01
2023-01-08T08:23:13.962Z,56.98
2023-01-08T08:25:15.616Z,57.30
2023-01-08T08:27:24.794Z,56.98
2023-01-08T08:29:29.017Z,57.40
2023-01-08T08:31:30.776Z,57.28
2023-01-08T08:33:32.496Z,57.16
2023-01-08T08:35:34.818Z,57.06
2023-01-08T08:37:36.632Z,57.08
2023-01-08T08:39:41.394Z,57.38
2023-01-08T08:41:43.015Z,57.44
2023-01-08T08:43:44.943Z,57.23
2023-01-08T08:45:46.497Z,57.17
2023-01-08T08:47:48.188Z,57.63
2023-01-08T08:49:50.883Z,57.15
2023-01-08T08:51:53.413Z,57.52
2023-01-08T08:53:58.013Z,57.16
2023-01-08T08:56:02.743Z,57.28
2023-01-08T08:58:16.782Z,57.39
2023-01-08T09:00:18.677Z,57.10
2023-01-08T09:02:23.328Z,57.24
2023-01-08T09:04:25.130Z,57.28
2023-01-08T09:06:27.754Z,57.49
2023-01-08T09:08:29.599Z,57.65
2023-01-08T09:10:31.237Z,57.40
2023-01-08T09:12:32.797Z,57.40
2023-01-08T09:14:34.442Z,57.35
2023-01-08T09:16:37.135Z,57.94
2023-01-08T09:18:38.765Z,57.46
2023-01-08T09:20:40.391Z,57.31
2023-01-08T09:22:49.367Z,57.50
2023-01-08T09:24:51.097Z,57.77
2023-01-08T09:26:54.278Z,57.86
2023-01-08T09:28:59.423Z,57.87
2023-01-08T09:31:02.528Z,57.65
2023-01-08T09:33:05.330Z,57.63
2023-01-08T09:35:07.406Z,57.93
2023-01-08T09:37:08.958Z,57.61
2023-01-08T09:39:10.774Z,57.91
2023-01-08T09:41:20.469Z,57.89
2023-01-08T09:43:24.862Z,57.98
2023-01-08T09:45:35.622Z,57.98
2023-01-08T09:47:42.713Z,58.00
2023-01-08T09:49:46.004Z,58.24
2023-01-08T09:51:47.799Z,58.01
2023-01-08T09:53:55.508Z,58.10
2023-01-08T09:56:11.003Z,58.21
2023-01-08T09:58:44.807Z,58.23
2023-01-08T10:00:46.717Z,58.47
2023-01-08T10:02:48.929Z,57.94
2023-01-08T10:04:56.353Z,58.24
2023-01-08T10:07:11.522Z,58.09
2023-01-08T10:09:14.720Z,58.22
2023-01-08T10:11:17.573Z,58.03
2023-01-08T10:13:22.340Z,57.98
2023-01-08T10:15:24.450Z,57.96
2023-01-08T10:17:38.072Z,58.19
2023-01-08T10:19:41.722Z,58.15
2023-01-08T10:29:22.756Z,58.23
2023-01-08T10:31:26.576Z,58.14
2023-01-08T10:33:45.148Z,58.43
2023-01-08T10:35:57.981Z,58.44
2023-01-08T10:37:59.568Z,58.40
2023-01-08T10:40:23.616Z,58.58
2023-01-08T10:42:25.650Z,58.29
2023-01-08T10:44:27.259Z,58.39
2023-01-08T10:46:32.798Z,58.44
2023-01-08T10:48:40.664Z,58.38
2023-01-08T10:50:43.495Z,58.55
2023-01-08T10:52:53.712Z,58.38
2023-01-08T10:54:56.098Z,58.55
2023-01-08T10:56:58.314Z,58.48
2023-01-08T10:58:59.857Z,58.33
2023-01-08T11:01:24.472Z,58.33
2023-01-08T11:03:32.974Z,58.35
2023-01-08T11:05:36.313Z,58.45
2023-01-08T11:07:40.166Z,58.57
2023-01-08T11:09:48.674Z,58.89
2023-01-08T11:11:53.329Z,58.75
2023-01-08T11:14:19.790Z,58.81
2023-01-08T11:16:26.308Z,58.46
2023-01-08T11:18:28.966Z,58.64
2023-01-08T11:20:31.412Z,58.86
2023-01-08T11:22:33.216Z,58.70
2023-01-08T11:24:37.404Z,58.53
2023-01-08T11:26:40.838Z,58.61
2023-01-08T11:28:56.109Z,58.79
2023-01-08T11:31:09.354Z,58.61
2023-01-08T11:33:21.175Z,58.77
2023-01-08T11:35:33.776Z,58.77
2023-01-08T11:37:41.456Z,58.80
2023-01-08T11:39:43.081Z,58.73
2023-01-08T11:42:09.633Z,58.79
2023-01-08T11:44:42.839Z,58.76
2023-01-08T11:47:23.684Z,58.80
2023-01-08T11:49:44.279Z,58.81
2023-01-08T11:52:04.312Z,58.91
2023-01-08T11:54:19.710Z,58.85
2023-01-08T11:56:33.517Z,59.24
2023-01-08T11:58:44.095Z,59.05
2023-01-08T12:01:07.031Z,59.25
2023-01-08T12:03:25.254Z,59.12
2023-01-08T12:05:51.924Z,58.96
2023-01-08T12:08:08.251Z,59.16
2023-01-08T12:10:24.184Z,59.10
2023-01-08T12:12:58.895Z,59.06
2023-01-08T12:15:19.036Z,59.00
2023-01-08T12:17:38.729Z,59.25
2023-01-08T12:19:54.645Z,59.07
2023-01-08T12:22:14.672Z,59.30
2023-01-08T12:24:16.630Z,59.07
2023-01-08T12:26:26.072Z,59.22
2023-01-08T12:28:50.007Z,59.18
2023-01-08T12:31:10.508Z,59.19
2023-01-08T12:33:21.173Z,59.28
2023-01-08T12:35:32.131Z,59.63
2023-01-08T12:37:54.442Z,59.41
2023-01-08T12:40:07.643Z,59.38
2023-01-08T12:42:14.508Z,59.42
2023-01-08T12:44:24.108Z,59.42
2023-01-08T12:46:28.439Z,59.31
2023-01-08T12:48:33.538Z,59.47
2023-01-08T12:50:50.738Z,59.29
2023-01-08T12:53:17.232Z,59.62
2023-01-08T12:55:45.262Z,59.42
2023-01-08T12:58:02.727Z,59.66
2023-01-08T13:00:17.761Z,59.52
2023-01-08T13:02:52.569Z,59.74
2023-01-08T13:05:03.457Z,59.57
2023-01-08T13:07:05.819Z,59.55
2023-01-08T13:09:07.419Z,59.37
2023-01-08T13:11:11.815Z,59.26
2023-01-08T13:13:31.760Z,59.64
2023-01-08T13:15:34.648Z,59.25
2023-01-08T13:17:37.955Z,59.35
2023-01-08T13:19:43.518Z,59.40
2023-01-08T13:21:53.128Z,59.52
2023-01-08T13:24:01.392Z,59.66
2023-01-08T13:26:05.555Z,59.63
2023-01-08T13:28:29.737Z,59.86
2023-01-08T13:30:38.300Z,59.71
2023-01-08T13:32:47.984Z,59.48
2023-01-08T13:35:22.901Z,59.58
2023-01-08T13:37:28.064Z,59.66
2023-01-08T13:39:48.183Z,59.76
2023-01-08T13:42:17.785Z,59.65
2023-01-08T13:44:26.540Z,59.84
2023-01-08T13:46:29.106Z,59.69
2023-01-08T13:48:35.271Z,59.61
2023-01-08T13:50:38.431Z,59.67
2023-01-08T13:52:48.167Z,59.90
2023-01-08T13:54:49.735Z,59.42
2023-01-08T13:57:09.352Z,59.51
2023-01-08T13:59:37.953Z,59.53
2023-01-08T14:01:40.113Z,59.38
2023-01-08T14:03:54.023Z,59.59
2023-01-08T14:06:17.310Z,59.55
2023-01-08T14:08:24.162Z,59.47
2023-01-08T14:10:28.295Z,59.58
2023-01-08T14:12:30.485Z,59.55
2023-01-08T14:14:32.238Z,59.45
2023-01-08T14:16:38.681Z,59.41
2023-01-08T14:18:45.107Z,59.55
2023-01-08T14:20:50.324Z,59.47
2023-01-08T14:22:52.054Z,59.46
2023-01-08T14:24:56.568Z,59.41
2023-01-08T14:27:00.657Z,59.67
2023-01-08T14:29:12.103Z,59.60
2023-01-08T14:31:22.090Z,59.49
2023-01-08T14:33:34.418Z,59.36
2023-01-08T14:35:36.180Z,59.24
2023-01-08T14:37:41.866Z,59.21
2023-01-08T14:39:45.679Z,59.22
2023-01-08T14:42:07.655Z,58.98
2023-01-08T14:44:13.547Z,59.19
2023-01-08T14:46:32.775Z,59.28
2023-01-08T14:48:44.221Z,59.14
2023-01-08T14:51:00.473Z,59.15
2023-01-08T14:53:20.031Z,59.29
2023-01-08T14:55:22.386Z,59.25
2023-01-08T14:57:26.661Z,59.18
2023-01-08T14:59:33.933Z,58.97
2023-01-08T15:01:36.825Z,59.34
2023-01-08T15:03:42.700Z,59.28
2023-01-08T15:05:54.360Z,58.93
2023-01-08T15:08:02.449Z,59.05
2023-01-08T15:10:23.131Z,59.21
2023-01-08T15:12:32.444Z,58.95
2023-01-08T15:14:37.025Z,59.00
2023-01-08T15:16:42.507Z,58.90
2023-01-08T15:19:07.598Z,59.15
2023-01-08T15:21:09.939Z,58.94
2023-01-08T15:23:27.247Z,58.77
2023-01-08T15:25:30.396Z,59.39
2023-01-08T15:27:34.335Z,59.00
2023-01-08T15:29:40.014Z,59.00
2023-01-08T15:31:42.918Z,58.94
2023-01-08T15:33:44.777Z,59.13
2023-01-08T15:35:47.336Z,58.95
2023-01-08T15:37:49.035Z,59.12
2023-01-08T15:39:50.931Z,58.81
2023-01-08T15:42:12.685Z,58.92
2023-01-08T15:44:14.373Z,59.05
2023-01-08T15:46:16.213Z,59.09
2023-01-08T15:48:18.000Z,58.92
2023-01-08T15:50:20.627Z,59.07
2023-01-08T15:52:30.134Z,59.10
2023-01-08T15:54:31.896Z,59.35
2023-01-08T15:56:33.411Z,58.95
2023-01-08T15:58:34.902Z,59.06
2023-01-08T16:00:36.510Z,59.01
2023-01-08T16:03:03.275Z,59.26
2023-01-08T16:05:05.481Z,59.01
2023-01-08T16:07:07.144Z,59.17
2023-01-08T16:09:08.572Z,59.06
2023-01-08T16:11:12.545Z,58.79
2023-01-08T16:13:15.619Z,59.00
2023-01-08T16:15:20.146Z,59.04
2023-01-08T16:17:21.598Z,59.01
2023-01-08T16:19:25.034Z,59.19
2023-01-08T16:21:26.843Z,59.15
2023-01-08T16:23:30.781Z,59.22
2023-01-08T16:25:32.611Z,59.15
2023-01-08T16:27:34.436Z,59.15
2023-01-08T16:29:36.066Z,59.02
2023-01-08T16:31:38.489Z,59.29
2023-01-08T16:33:40.581Z,59.09
2023-01-08T16:35:42.221Z,59.10
2023-01-08T16:37:43.775Z,59.11
2023-01-08T16:39:45.505Z,59.18
2023-01-08T16:41:47.888Z,59.17
2023-01-08T16:43:49.664Z,59.13
2023-01-08T16:45:51.648Z,59.14
2023-01-08T16:47:53.342Z,59.07
2023-01-08T16:49:55.097Z,59.00
2023-01-08T16:52:00.434Z,59.08
2023-01-08T16:54:01.884Z,59.13
2023-01-08T16:56:04.696Z,58.94
2023-01-08T16:58:07.727Z,59.19
2023-01-08T17:00:10.060Z,59.05
2023-01-08T17:02:12.214Z,59.18
2023-01-08T17:04:13.753Z,59.18
2023-01-08T17:06:15.355Z,59.21
2023-01-08T17:08:17.680Z,59.04
2023-01-08T17:10:20.241Z,59.14
2023-01-08T17:12:24.879Z,59.15
2023-01-08T17:14:26.593Z,59.32
2023-01-08T17:16:28.293Z,59.27
2023-01-08T17:18:30.040Z,59.13
2023-01-08T17:20:31.880Z,59.22
2023-01-08T17:22:33.460Z,59.12
2023-01-08T17:24:35.224Z,59.20
2023-01-08T17:26:39.492Z,59.19
2023-01-08T17:28:41.096Z,59.00
2023-01-08T17:30:42.731Z,59.19
2023-01-08T17:32:44.400Z,59.30
2023-01-08T17:34:45.992Z,59.16
2023-01-08T17:36:47.608Z,59.09
2023-01-08T17:38:50.659Z,59.10
2023-01-08T17:40:54.190Z,59.28
2023-01-08T17:42:55.859Z,59.05
2023-01-08T17:45:02.942Z,59.20
2023-01-08T17:47:04.528Z,59.03
2023-01-08T17:49:06.071Z,58.86
2023-01-08T17:51:09.598Z,58.90
2023-01-08T17:53:11.368Z,59.08
2023-01-08T17:55:12.942Z,59.16
2023-01-08T17:57:14.572Z,59.14
2023-01-08T17:59:17.985Z,59.05
2023-01-08T18:01:20.010Z,59.19
2023-01-08T18:03:21.781Z,59.23
2023-01-08T18:05:23.538Z,59.06
2023-01-08T18:07:25.381Z,59.03
2023-01-08T18:09:26.930Z,59.23
2023-01-08T18:11:28.794Z,59.42
2023-01-08T18:13:31.231Z,59.27
2023-01-08T18:15:34.307Z,59.14
2023-01-08T18:17:36.220Z,59.26
2023-01-08T18:19:38.043Z,59.18
2023-01-08T18:21:39.886Z,59.02
2023-01-08T18:23:41.500Z,59.32
2023-01-08T18:25:43.181Z,59.11
2023-01-08T18:27:45.072Z,58.95
2023-01-08T18:29:47.376Z,59.34
2023-01-08T18:31:49.000Z,59.38
2023-01-08T18:33:53.884Z,59.36
2023-01-08T18:36:06.489Z,59.24
2023-01-08T18:38:15.674Z,59.27
2023-01-08T18:40:17.325Z,59.32
2023-01-08T18:42:28.033Z,59.00
2023-01-08T18:44:31.915Z,59.31
2023-01-08T18:46:34.572Z,59.22
2023-01-08T18:48:36.141Z,59.16
2023-01-08T18:50:39.045Z,59.29
2023-01-08T18:52:41.986Z,59.48
2023-01-08T18:54:43.542Z,59.18
2023-01-08T18:56:47.954Z,59.32
2023-01-08T18:58:55.452Z,59.20
2023-01-08T19:01:03.956Z,59.16
2023-01-08T19:03:08.799Z,59.23
2023-01-08T19:05:10.600Z,59.18
2023-01-08T19:07:12.253Z,59.17
2023-01-08T19:09:15.618Z,59.10
2023-01-08T19:11:17.567Z,59.38
2023-01-08T19:13:19.221Z,59.12
2023-01-08T19:15:23.627Z,59.25
2023-01-08T19:17:25.719Z,59.24
2023-01-08T19:19:28.671Z,59.23
2023-01-08T19:21:30.398Z,59.13
2023-01-08T19:23:32.147Z,59.22
2023-01-08T19:25:36.601Z,59.10
2023-01-08T19:27:40.556Z,59.02
2023-01-08T19:29:42.047Z,59.18
2023-01-08T19:31:46.823Z,58.87
2023-01-08T19:33:48.446Z,59.04
2023-01-08T19:35:50.571Z,59.26
2023-01-08T19:37:52.513Z,59.01
2023-01-08T19:40:03.344Z,59.17
2023-01-08T19:42:23.936Z,58.93
2023-01-08T19:44:26.081Z,59.04
2023-01-08T19:46:28.682Z,59.06
2023-01-08T19:48:30.460Z,58.66
2023-01-08T19:50:39.124Z,58.89
2023-01-08T19:52:45.960Z,58.95
2023-01-08T19:54:47.699Z,59.02
2023-01-08T19:56:58.361Z,59.05
2023-01-08T19:59:00.157Z,59.13
2023-01-08T20:01:11.367Z,58.82
2023-01-08T20:03:13.086Z,58.91
2023-01-08T20:05:15.229Z,59.11
2023-01-08T20:07:16.923Z,59.05
2023-01-08T20:09:18.603Z,58.92
2023-01-08T20:11:22.453Z,59.07
2023-01-08T20:13:24.087Z,59.17
2023-01-08T20:15:25.647Z,58.85
2023-01-08T20:17:27.359Z,58.98
2023-01-08T20:19:32.815Z,59.01
2023-01-08T20:21:34.675Z,58.97
2023-01-08T20:23:37.004Z,58.91
2023-01-08T20:25:38.411Z,59.02
2023-01-08T20:27:40.874Z,59.13
2023-01-08T20:29:42.499Z,59.18
2023-01-08T20:31:49.385Z,58.91
2023-01-08T20:33:51.099Z,59.04
2023-01-08T20:35:52.667Z,59.15
2023-01-08T20:37:54.475Z,58.82
2023-01-08T20:39:56.122Z,58.92
2023-01-08T20:42:04.336Z,58.98
2023-01-08T20:44:06.979Z,58.97
2023-01-08T20:46:10.412Z,59.08
2023-01-08T20:48:12.205Z,58.92
2023-01-08T20:50:19.937Z,59.01
2023-01-08T20:52:25.012Z,59.05
2023-01-08T20:54:29.805Z,58.87
2023-01-08T20:56:31.515Z,58.90
2023-01-08T20:58:41.486Z,58.92
2023-01-08T21:00:46.207Z,58.96
2023-01-08T21:02:48.012Z,59.04
2023-01-08T21:04:51.847Z,58.83
2023-01-08T21:06:53.816Z,58.97
2023-01-08T21:08:58.167Z,59.14
2023-01-08T21:11:07.112Z,58.97
2023-01-08T21:13:09.780Z,59.01
2023-01-08T21:15:12.473Z,58.85
2023-01-08T21:17:14.083Z,58.92
2023-01-08T21:19:15.810Z,58.98
2023-01-08T21:21:19.976Z,59.15
2023-01-08T21:23:22.908Z,59.07
2023-01-08T21:25:24.582Z,58.82
2023-01-08T21:27:27.917Z,59.03
2023-01-08T21:29:29.712Z,58.81
2023-01-08T21:31:31.633Z,58.99
2023-01-08T21:33:40.694Z,58.98
2023-01-08T21:35:42.349Z,58.97
2023-01-08T21:37:43.901Z,58.70
2023-01-08T21:39:46.910Z,58.81
2023-01-08T21:42:06.988Z,59.00
2023-01-08T21:44:46.146Z,58.69
2023-01-08T21:46:47.906Z,58.98
2023-01-08T21:48:52.300Z,58.81
2023-01-08T21:50:53.952Z,58.86
2023-01-08T21:53:14.001Z,58.83
2023-01-08T21:55:17.371Z,59.06
2023-01-08T21:57:22.084Z,59.05
2023-01-08T21:59:23.661Z,58.79
2023-01-08T22:01:26.413Z,58.69
2023-01-08T22:03:28.132Z,58.84
2023-01-08T22:05:29.847Z,59.02
2023-01-08T22:07:32.137Z,58.92
2023-01-08T22:09:36.473Z,58.75
2023-01-08T22:11:38.215Z,58.91
2023-01-08T22:13:42.880Z,58.48
2023-01-08T22:15:44.431Z,58.60
2023-01-08T22:17:46.260Z,58.61
2023-01-08T22:19:47.734Z,58.84
2023-01-08T22:21:52.029Z,58.77
2023-01-08T22:23:55.673Z,58.51
2023-01-08T22:25:57.520Z,58.45
2023-01-08T22:27:59.191Z,58.73
2023-01-08T22:30:00.940Z,58.46
2023-01-08T22:32:02.663Z,58.59
2023-01-08T22:34:04.205Z,58.60
2023-01-08T22:36:11.689Z,58.49
2023-01-08T22:38:13.253Z,58.78
2023-01-08T22:40:14.782Z,58.80
2023-01-08T22:42:16.817Z,58.52
2023-01-08T22:44:18.532Z,58.52
2023-01-08T22:46:20.095Z,58.72
2023-01-08T22:48:22.379Z,58.41
2023-01-08T22:50:25.969Z,58.57
2023-01-08T22:52:27.514Z,58.59
2023-01-08T22:54:29.268Z,58.55
2023-01-08T22:56:30.900Z,58.51
2023-01-08T22:58:32.445Z,58.69
2023-01-08T23:00:34.755Z,58.42
2023-01-08T23:02:37.470Z,58.49
2023-01-08T23:04:39.066Z,58.56
2023-01-08T23:06:43.040Z,58.59
2023-01-08T23:08:45.682Z,58.61
2023-01-08T23:10:47.183Z,58.60
2023-01-08T23:12:50.684Z,58.75
2023-01-08T23:14:52.505Z,58.75
2023-01-08T23:16:54.189Z,59.00
2023-01-08T23:18:59.620Z,58.60
2023-01-08T23:21:14.604Z,58.80
2023-01-08T23:23:16.698Z,58.83
2023-01-08T23:25:21.405Z,58.79
2023-01-08T23:27:22.931Z,59.03
2023-01-08T23:29:32.114Z,58.91
2023-01-08T23:31:37.686Z,59.16
2023-01-08T23:33:39.844Z,58.95
2023-01-08T23:35:44.133Z,59.32
2023-01-08T23:37:45.630Z,59.55
2023-01-08T23:39:47.233Z,59.14
2023-01-08T23:41:48.916Z,59.17
2023-01-08T23:43:50.507Z,59.15
2023-01-08T23:45:53.052Z,59.43
2023-01-08T23:47:54.607Z,59.58
2023-01-08T23:49:57.401Z,59.23
2023-01-08T23:51:59.011Z,59.37
2023-01-08T23:54:00.799Z,59.60
2023-01-08T23:56:04.588Z,59.48
2023-01-08T23:58:06.045Z,59.38
